Terminal Aerodrome Forecast
Issued by NWS Wakefield, VA

Home | Current Version | Previous Version | Text Only | Print | Product List | Glossary On
Versions: 1 2 3 4 5 6 7 8 9 10 11 12 13 14
000
FTUS41 KAKQ 280526
TAFECG
TAF
KECG 280526Z 2806/2906 VRB03KT P6SM SKC
      TEMPO 2809/2811 00000KT 4SM BR SCT003
     FM281300 10005KT P6SM SKC
     FM281700 10009KT P6SM SCT030 SCT200
     FM282000 09008KT P6SM BKN025 BKN090 OVC200=

USA.gov is the U.S. government's official web portal to all federal, state and local government web resources and services.